sensor_id;sensor_type;location;lat;lon;timestamp;P1;durP1;ratioP1;P2;durP2;ratioP2
62633;SDS011;48704;50.534;6.442;2023-04-28T00:01:16;6.63;;;4.43;;
62633;SDS011;48704;50.534;6.442;2023-04-28T00:03:42;7.13;;;4.07;;
62633;SDS011;48704;50.534;6.442;2023-04-28T00:06:07;10.07;;;4.22;;
62633;SDS011;48704;50.534;6.442;2023-04-28T00:08:33;7.57;;;4.32;;
62633;SDS011;48704;50.534;6.442;2023-04-28T00:10:58;9.00;;;4.32;;
62633;SDS011;48704;50.534;6.442;2023-04-28T00:13:24;7.65;;;4.10;;
62633;SDS011;48704;50.534;6.442;2023-04-28T00:15:50;9.35;;;6.05;;
62633;SDS011;48704;50.534;6.442;2023-04-28T00:18:17;6.15;;;4.32;;
62633;SDS011;48704;50.534;6.442;2023-04-28T00:20:42;8.13;;;4.80;;
62633;SDS011;48704;50.534;6.442;2023-04-28T00:23:08;7.72;;;4.28;;
62633;SDS011;48704;50.534;6.442;2023-04-28T00:25:33;9.00;;;4.47;;
62633;SDS011;48704;50.534;6.442;2023-04-28T00:27:58;9.88;;;4.22;;
62633;SDS011;48704;50.534;6.442;2023-04-28T00:30:24;8.80;;;4.63;;
62633;SDS011;48704;50.534;6.442;2023-04-28T00:32:49;9.63;;;4.40;;
62633;SDS011;48704;50.534;6.442;2023-04-28T00:35:14;5.80;;;3.95;;
62633;SDS011;48704;50.534;6.442;2023-04-28T00:37:40;8.70;;;4.43;;
62633;SDS011;48704;50.534;6.442;2023-04-28T00:40:05;8.25;;;4.03;;
62633;SDS011;48704;50.534;6.442;2023-04-28T00:42:31;7.68;;;4.20;;
62633;SDS011;48704;50.534;6.442;2023-04-28T00:44:56;6.95;;;4.32;;
62633;SDS011;48704;50.534;6.442;2023-04-28T00:47:22;7.28;;;4.15;;
62633;SDS011;48704;50.534;6.442;2023-04-28T00:49:47;7.53;;;4.22;;
62633;SDS011;48704;50.534;6.442;2023-04-28T00:52:13;8.25;;;4.28;;
62633;SDS011;48704;50.534;6.442;2023-04-28T00:54:39;8.68;;;5.40;;
62633;SDS011;48704;50.534;6.442;2023-04-28T00:57:06;12.32;;;5.95;;
62633;SDS011;48704;50.534;6.442;2023-04-28T00:59:32;12.90;;;5.78;;
62633;SDS011;48704;50.534;6.442;2023-04-28T01:01:58;10.38;;;5.85;;
62633;SDS011;48704;50.534;6.442;2023-04-28T01:04:24;9.35;;;4.40;;
62633;SDS011;48704;50.534;6.442;2023-04-28T01:06:51;8.00;;;5.28;;
62633;SDS011;48704;50.534;6.442;2023-04-28T01:09:17;8.63;;;4.07;;
62633;SDS011;48704;50.534;6.442;2023-04-28T01:11:43;9.85;;;4.80;;
62633;SDS011;48704;50.534;6.442;2023-04-28T01:14:08;8.77;;;4.00;;
62633;SDS011;48704;50.534;6.442;2023-04-28T01:16:33;8.65;;;4.28;;
62633;SDS011;48704;50.534;6.442;2023-04-28T01:18:59;8.05;;;4.18;;
62633;SDS011;48704;50.534;6.442;2023-04-28T01:21:32;5.93;;;4.00;;
62633;SDS011;48704;50.534;6.442;2023-04-28T01:23:58;6.82;;;3.67;;
62633;SDS011;48704;50.534;6.442;2023-04-28T01:26:24;8.23;;;4.55;;
62633;SDS011;48704;50.534;6.442;2023-04-28T01:28:49;6.47;;;4.00;;
62633;SDS011;48704;50.534;6.442;2023-04-28T01:31:15;6.50;;;4.35;;
62633;SDS011;48704;50.534;6.442;2023-04-28T01:33:40;11.07;;;4.70;;
62633;SDS011;48704;50.534;6.442;2023-04-28T01:36:06;7.25;;;4.53;;
62633;SDS011;48704;50.534;6.442;2023-04-28T01:38:31;4.95;;;3.50;;
62633;SDS011;48704;50.534;6.442;2023-04-28T01:40:56;8.15;;;4.13;;
62633;SDS011;48704;50.534;6.442;2023-04-28T01:43:22;5.28;;;3.53;;
62633;SDS011;48704;50.534;6.442;2023-04-28T01:45:48;7.35;;;4.25;;
62633;SDS011;48704;50.534;6.442;2023-04-28T01:48:13;8.52;;;4.10;;
62633;SDS011;48704;50.534;6.442;2023-04-28T01:50:38;9.45;;;4.25;;
62633;SDS011;48704;50.534;6.442;2023-04-28T01:53:03;7.95;;;4.20;;
62633;SDS011;48704;50.534;6.442;2023-04-28T01:55:29;7.75;;;4.20;;
62633;SDS011;48704;50.534;6.442;2023-04-28T01:57:54;6.35;;;3.63;;
62633;SDS011;48704;50.534;6.442;2023-04-28T02:00:22;8.20;;;3.83;;
62633;SDS011;48704;50.534;6.442;2023-04-28T02:02:47;12.52;;;4.78;;
62633;SDS011;48704;50.534;6.442;2023-04-28T02:05:12;12.55;;;4.70;;
62633;SDS011;48704;50.534;6.442;2023-04-28T02:07:37;7.97;;;4.53;;
62633;SDS011;48704;50.534;6.442;2023-04-28T02:10:03;10.57;;;5.45;;
62633;SDS011;48704;50.534;6.442;2023-04-28T02:12:28;7.72;;;4.20;;
62633;SDS011;48704;50.534;6.442;2023-04-28T02:14:53;9.32;;;4.90;;
62633;SDS011;48704;50.534;6.442;2023-04-28T02:17:19;8.13;;;4.80;;
62633;SDS011;48704;50.534;6.442;2023-04-28T02:19:44;7.50;;;4.80;;
62633;SDS011;48704;50.534;6.442;2023-04-28T02:22:10;8.85;;;5.63;;
62633;SDS011;48704;50.534;6.442;2023-04-28T02:24:35;12.02;;;5.57;;
62633;SDS011;48704;50.534;6.442;2023-04-28T02:27:03;8.70;;;4.85;;
62633;SDS011;48704;50.534;6.442;2023-04-28T02:29:29;7.95;;;4.80;;
62633;SDS011;48704;50.534;6.442;2023-04-28T02:31:55;9.25;;;4.90;;
62633;SDS011;48704;50.534;6.442;2023-04-28T02:34:21;11.68;;;5.68;;
62633;SDS011;48704;50.534;6.442;2023-04-28T02:36:46;10.77;;;5.38;;
62633;SDS011;48704;50.534;6.442;2023-04-28T02:39:12;8.63;;;5.05;;
62633;SDS011;48704;50.534;6.442;2023-04-28T02:41:37;11.38;;;5.18;;
62633;SDS011;48704;50.534;6.442;2023-04-28T02:44:03;9.80;;;4.97;;
62633;SDS011;48704;50.534;6.442;2023-04-28T02:46:28;10.38;;;5.53;;
62633;SDS011;48704;50.534;6.442;2023-04-28T02:48:54;9.88;;;5.10;;
62633;SDS011;48704;50.534;6.442;2023-04-28T02:51:20;12.75;;;5.68;;
62633;SDS011;48704;50.534;6.442;2023-04-28T02:53:45;11.75;;;5.78;;
62633;SDS011;48704;50.534;6.442;2023-04-28T02:56:11;6.60;;;4.35;;
62633;SDS011;48704;50.534;6.442;2023-04-28T02:58:36;11.00;;;6.03;;
62633;SDS011;48704;50.534;6.442;2023-04-28T03:01:01;11.77;;;5.68;;
62633;SDS011;48704;50.534;6.442;2023-04-28T03:03:26;10.25;;;5.13;;
62633;SDS011;48704;50.534;6.442;2023-04-28T03:05:52;12.13;;;6.35;;
62633;SDS011;48704;50.534;6.442;2023-04-28T03:08:17;12.27;;;6.47;;
62633;SDS011;48704;50.534;6.442;2023-04-28T03:10:44;14.25;;;7.85;;
62633;SDS011;48704;50.534;6.442;2023-04-28T03:13:10;13.45;;;6.88;;
62633;SDS011;48704;50.534;6.442;2023-04-28T03:15:35;13.00;;;6.45;;
62633;SDS011;48704;50.534;6.442;2023-04-28T03:18:01;19.95;;;8.45;;
62633;SDS011;48704;50.534;6.442;2023-04-28T03:20:26;13.23;;;7.63;;
62633;SDS011;48704;50.534;6.442;2023-04-28T03:22:51;15.65;;;7.80;;
62633;SDS011;48704;50.534;6.442;2023-04-28T03:25:17;16.00;;;7.97;;
62633;SDS011;48704;50.534;6.442;2023-04-28T03:27:42;15.20;;;7.40;;
62633;SDS011;48704;50.534;6.442;2023-04-28T03:30:07;15.05;;;6.90;;
62633;SDS011;48704;50.534;6.442;2023-04-28T03:32:34;14.90;;;7.22;;
62633;SDS011;48704;50.534;6.442;2023-04-28T03:34:59;15.77;;;6.78;;
62633;SDS011;48704;50.534;6.442;2023-04-28T03:37:24;14.63;;;7.53;;
62633;SDS011;48704;50.534;6.442;2023-04-28T03:39:50;10.93;;;6.18;;
62633;SDS011;48704;50.534;6.442;2023-04-28T03:42:15;12.68;;;7.00;;
62633;SDS011;48704;50.534;6.442;2023-04-28T03:44:40;10.30;;;6.40;;
62633;SDS011;48704;50.534;6.442;2023-04-28T03:47:06;12.00;;;7.32;;
62633;SDS011;48704;50.534;6.442;2023-04-28T03:49:31;11.90;;;7.03;;
62633;SDS011;48704;50.534;6.442;2023-04-28T03:51:56;11.82;;;7.10;;
62633;SDS011;48704;50.534;6.442;2023-04-28T03:54:21;12.70;;;7.22;;
62633;SDS011;48704;50.534;6.442;2023-04-28T03:56:47;13.63;;;6.95;;
62633;SDS011;48704;50.534;6.442;2023-04-28T03:59:12;14.98;;;8.15;;
62633;SDS011;48704;50.534;6.442;2023-04-28T04:01:37;15.52;;;7.65;;
62633;SDS011;48704;50.534;6.442;2023-04-28T04:04:03;14.57;;;7.90;;
62633;SDS011;48704;50.534;6.442;2023-04-28T04:06:29;14.07;;;6.85;;
62633;SDS011;48704;50.534;6.442;2023-04-28T04:08:54;12.35;;;7.60;;
62633;SDS011;48704;50.534;6.442;2023-04-28T04:11:20;16.10;;;7.35;;
62633;SDS011;48704;50.534;6.442;2023-04-28T04:13:45;14.35;;;7.95;;
62633;SDS011;48704;50.534;6.442;2023-04-28T04:16:10;17.00;;;7.88;;
62633;SDS011;48704;50.534;6.442;2023-04-28T04:18:36;12.88;;;7.88;;
62633;SDS011;48704;50.534;6.442;2023-04-28T04:21:01;15.73;;;8.05;;
62633;SDS011;48704;50.534;6.442;2023-04-28T04:23:27;15.10;;;8.30;;
62633;SDS011;48704;50.534;6.442;2023-04-28T04:25:52;13.68;;;8.52;;
62633;SDS011;48704;50.534;6.442;2023-04-28T04:28:17;16.25;;;8.45;;
62633;SDS011;48704;50.534;6.442;2023-04-28T04:30:42;17.88;;;8.90;;
62633;SDS011;48704;50.534;6.442;2023-04-28T04:33:08;16.33;;;7.47;;
62633;SDS011;48704;50.534;6.442;2023-04-28T04:35:34;14.35;;;8.70;;
62633;SDS011;48704;50.534;6.442;2023-04-28T04:38:00;15.40;;;8.85;;
62633;SDS011;48704;50.534;6.442;2023-04-28T04:40:25;16.00;;;8.77;;
62633;SDS011;48704;50.534;6.442;2023-04-28T04:42:50;15.73;;;8.38;;
62633;SDS011;48704;50.534;6.442;2023-04-28T04:45:16;19.50;;;9.38;;
62633;SDS011;48704;50.534;6.442;2023-04-28T04:47:41;17.45;;;8.43;;
62633;SDS011;48704;50.534;6.442;2023-04-28T04:50:07;17.33;;;7.97;;
62633;SDS011;48704;50.534;6.442;2023-04-28T04:52:33;15.88;;;8.40;;
62633;SDS011;48704;50.534;6.442;2023-04-28T04:54:58;17.23;;;8.32;;
62633;SDS011;48704;50.534;6.442;2023-04-28T04:57:24;13.32;;;8.10;;
62633;SDS011;48704;50.534;6.442;2023-04-28T04:59:49;14.30;;;8.20;;
62633;SDS011;48704;50.534;6.442;2023-04-28T05:02:15;12.52;;;7.82;;
62633;SDS011;48704;50.534;6.442;2023-04-28T05:04:41;13.60;;;7.53;;
62633;SDS011;48704;50.534;6.442;2023-04-28T05:07:06;14.85;;;8.60;;
62633;SDS011;48704;50.534;6.442;2023-04-28T05:09:32;15.70;;;8.63;;
62633;SDS011;48704;50.534;6.442;2023-04-28T05:11:57;15.98;;;9.00;;
62633;SDS011;48704;50.534;6.442;2023-04-28T05:14:23;16.73;;;9.45;;
62633;SDS011;48704;50.534;6.442;2023-04-28T05:16:48;15.40;;;8.32;;
62633;SDS011;48704;50.534;6.442;2023-04-28T05:19:14;15.60;;;9.00;;
62633;SDS011;48704;50.534;6.442;2023-04-28T05:21:39;15.98;;;8.93;;
62633;SDS011;48704;50.534;6.442;2023-04-28T05:24:04;15.02;;;9.20;;
62633;SDS011;48704;50.534;6.442;2023-04-28T05:26:30;14.13;;;8.13;;
62633;SDS011;48704;50.534;6.442;2023-04-28T05:28:55;12.23;;;8.07;;
62633;SDS011;48704;50.534;6.442;2023-04-28T05:31:20;27.15;;;12.80;;
62633;SDS011;48704;50.534;6.442;2023-04-28T05:33:46;28.08;;;14.23;;
62633;SDS011;48704;50.534;6.442;2023-04-28T05:36:11;16.25;;;9.18;;
62633;SDS011;48704;50.534;6.442;2023-04-28T05:38:37;18.88;;;10.15;;
62633;SDS011;48704;50.534;6.442;2023-04-28T05:41:02;16.45;;;8.65;;
62633;SDS011;48704;50.534;6.442;2023-04-28T05:43:27;17.70;;;8.55;;
62633;SDS011;48704;50.534;6.442;2023-04-28T05:45:53;20.90;;;10.52;;
62633;SDS011;48704;50.534;6.442;2023-04-28T05:48:18;12.90;;;7.32;;
62633;SDS011;48704;50.534;6.442;2023-04-28T05:50:43;31.23;;;13.00;;
62633;SDS011;48704;50.534;6.442;2023-04-28T05:53:09;24.55;;;12.98;;
62633;SDS011;48704;50.534;6.442;2023-04-28T05:55:34;23.65;;;11.55;;
62633;SDS011;48704;50.534;6.442;2023-04-28T05:58:03;18.38;;;9.70;;
62633;SDS011;48704;50.534;6.442;2023-04-28T06:00:28;14.57;;;8.57;;
62633;SDS011;48704;50.534;6.442;2023-04-28T06:02:54;11.13;;;6.72;;
62633;SDS011;48704;50.534;6.442;2023-04-28T06:05:19;10.90;;;6.88;;
62633;SDS011;48704;50.534;6.442;2023-04-28T06:07:45;10.15;;;5.95;;
62633;SDS011;48704;50.534;6.442;2023-04-28T06:10:10;11.85;;;6.75;;
62633;SDS011;48704;50.534;6.442;2023-04-28T06:12:36;9.90;;;6.70;;
62633;SDS011;48704;50.534;6.442;2023-04-28T06:15:01;10.15;;;6.40;;
62633;SDS011;48704;50.534;6.442;2023-04-28T06:17:27;10.35;;;6.68;;
62633;SDS011;48704;50.534;6.442;2023-04-28T06:19:55;10.32;;;5.65;;
62633;SDS011;48704;50.534;6.442;2023-04-28T06:22:20;9.88;;;5.88;;
62633;SDS011;48704;50.534;6.442;2023-04-28T06:24:46;10.25;;;6.30;;
62633;SDS011;48704;50.534;6.442;2023-04-28T06:27:11;11.48;;;6.47;;
62633;SDS011;48704;50.534;6.442;2023-04-28T06:29:37;9.45;;;5.65;;
62633;SDS011;48704;50.534;6.442;2023-04-28T06:32:02;8.68;;;5.88;;
62633;SDS011;48704;50.534;6.442;2023-04-28T06:34:28;10.20;;;6.32;;
62633;SDS011;48704;50.534;6.442;2023-04-28T06:36:54;9.05;;;5.63;;
62633;SDS011;48704;50.534;6.442;2023-04-28T06:39:22;9.02;;;5.57;;
62633;SDS011;48704;50.534;6.442;2023-04-28T06:41:47;8.93;;;5.30;;
62633;SDS011;48704;50.534;6.442;2023-04-28T06:44:12;8.52;;;5.40;;
62633;SDS011;48704;50.534;6.442;2023-04-28T06:46:38;7.72;;;4.70;;
62633;SDS011;48704;50.534;6.442;2023-04-28T06:49:03;6.82;;;4.28;;
62633;SDS011;48704;50.534;6.442;2023-04-28T06:51:29;8.38;;;4.63;;
62633;SDS011;48704;50.534;6.442;2023-04-28T06:53:56;12.30;;;6.28;;
62633;SDS011;48704;50.534;6.442;2023-04-28T06:56:22;9.85;;;5.20;;
62633;SDS011;48704;50.534;6.442;2023-04-28T06:58:47;10.07;;;6.07;;
62633;SDS011;48704;50.534;6.442;2023-04-28T07:01:13;8.57;;;5.03;;
62633;SDS011;48704;50.534;6.442;2023-04-28T07:03:38;10.80;;;6.05;;
62633;SDS011;48704;50.534;6.442;2023-04-28T07:06:03;7.35;;;5.07;;
62633;SDS011;48704;50.534;6.442;2023-04-28T07:08:29;9.40;;;6.00;;
62633;SDS011;48704;50.534;6.442;2023-04-28T07:10:55;11.10;;;6.43;;
62633;SDS011;48704;50.534;6.442;2023-04-28T07:13:21;11.07;;;6.50;;
62633;SDS011;48704;50.534;6.442;2023-04-28T07:15:46;10.63;;;6.35;;
62633;SDS011;48704;50.534;6.442;2023-04-28T07:18:11;10.20;;;6.82;;
62633;SDS011;48704;50.534;6.442;2023-04-28T07:20:36;9.63;;;5.88;;
62633;SDS011;48704;50.534;6.442;2023-04-28T07:23:02;9.70;;;5.55;;
62633;SDS011;48704;50.534;6.442;2023-04-28T07:25:27;8.75;;;4.97;;
62633;SDS011;48704;50.534;6.442;2023-04-28T07:27:52;9.45;;;5.88;;
62633;SDS011;48704;50.534;6.442;2023-04-28T07:30:18;9.65;;;7.18;;
62633;SDS011;48704;50.534;6.442;2023-04-28T07:32:43;8.27;;;5.28;;
62633;SDS011;48704;50.534;6.442;2023-04-28T07:35:08;9.02;;;5.60;;
62633;SDS011;48704;50.534;6.442;2023-04-28T07:37:34;7.15;;;5.13;;
62633;SDS011;48704;50.534;6.442;2023-04-28T07:40:01;8.90;;;6.13;;
62633;SDS011;48704;50.534;6.442;2023-04-28T07:42:26;8.07;;;5.40;;
62633;SDS011;48704;50.534;6.442;2023-04-28T07:44:51;8.10;;;4.75;;
62633;SDS011;48704;50.534;6.442;2023-04-28T07:47:17;7.38;;;5.20;;
62633;SDS011;48704;50.534;6.442;2023-04-28T07:49:42;7.75;;;4.90;;
62633;SDS011;48704;50.534;6.442;2023-04-28T07:52:08;7.05;;;4.43;;
62633;SDS011;48704;50.534;6.442;2023-04-28T07:54:33;6.00;;;3.33;;
62633;SDS011;48704;50.534;6.442;2023-04-28T07:56:59;5.90;;;3.35;;
62633;SDS011;48704;50.534;6.442;2023-04-28T07:59:24;5.95;;;2.90;;
62633;SDS011;48704;50.534;6.442;2023-04-28T08:01:50;5.00;;;2.83;;
62633;SDS011;48704;50.534;6.442;2023-04-28T08:04:16;3.80;;;2.30;;
62633;SDS011;48704;50.534;6.442;2023-04-28T08:06:41;3.50;;;2.10;;
62633;SDS011;48704;50.534;6.442;2023-04-28T08:09:06;2.60;;;1.55;;
62633;SDS011;48704;50.534;6.442;2023-04-28T08:11:32;3.42;;;1.83;;
62633;SDS011;48704;50.534;6.442;2023-04-28T08:13:59;3.13;;;1.50;;
62633;SDS011;48704;50.534;6.442;2023-04-28T08:16:27;3.35;;;1.20;;
62633;SDS011;48704;50.534;6.442;2023-04-28T08:18:53;3.92;;;1.63;;
62633;SDS011;48704;50.534;6.442;2023-04-28T08:21:18;3.30;;;1.60;;
62633;SDS011;48704;50.534;6.442;2023-04-28T08:23:43;2.03;;;1.00;;
62633;SDS011;48704;50.534;6.442;2023-04-28T08:26:09;3.08;;;1.48;;
62633;SDS011;48704;50.534;6.442;2023-04-28T08:28:34;2.65;;;1.13;;
62633;SDS011;48704;50.534;6.442;2023-04-28T08:30:59;2.33;;;1.00;;
62633;SDS011;48704;50.534;6.442;2023-04-28T08:33:25;3.35;;;1.70;;
62633;SDS011;48704;50.534;6.442;2023-04-28T08:35:50;4.15;;;2.20;;
62633;SDS011;48704;50.534;6.442;2023-04-28T08:38:16;4.55;;;2.67;;
62633;SDS011;48704;50.534;6.442;2023-04-28T08:40:42;4.95;;;2.28;;
62633;SDS011;48704;50.534;6.442;2023-04-28T08:43:07;4.32;;;2.53;;
62633;SDS011;48704;50.534;6.442;2023-04-28T08:45:39;4.30;;;2.33;;
62633;SDS011;48704;50.534;6.442;2023-04-28T08:48:08;3.97;;;2.00;;
62633;SDS011;48704;50.534;6.442;2023-04-28T08:50:49;3.92;;;2.20;;
62633;SDS011;48704;50.534;6.442;2023-04-28T08:53:18;3.90;;;2.08;;
62633;SDS011;48704;50.534;6.442;2023-04-28T08:55:47;3.55;;;2.05;;
62633;SDS011;48704;50.534;6.442;2023-04-28T08:58:15;3.30;;;1.88;;
62633;SDS011;48704;50.534;6.442;2023-04-28T09:00:41;4.10;;;1.95;;
62633;SDS011;48704;50.534;6.442;2023-04-28T09:03:06;4.28;;;2.40;;
62633;SDS011;48704;50.534;6.442;2023-04-28T09:05:32;4.53;;;1.95;;
62633;SDS011;48704;50.534;6.442;2023-04-28T09:08:00;3.75;;;1.90;;
62633;SDS011;48704;50.534;6.442;2023-04-28T09:10:26;3.67;;;1.90;;
62633;SDS011;48704;50.534;6.442;2023-04-28T09:12:52;3.28;;;1.80;;
62633;SDS011;48704;50.534;6.442;2023-04-28T09:15:38;2.85;;;1.52;;
62633;SDS011;48704;50.534;6.442;2023-04-28T09:18:06;3.50;;;1.80;;
62633;SDS011;48704;50.534;6.442;2023-04-28T09:20:33;3.35;;;1.70;;
62633;SDS011;48704;50.534;6.442;2023-04-28T09:23:15;3.03;;;1.75;;
62633;SDS011;48704;50.534;6.442;2023-04-28T09:25:55;3.03;;;1.55;;
62633;SDS011;48704;50.534;6.442;2023-04-28T09:28:30;3.13;;;1.70;;
62633;SDS011;48704;50.534;6.442;2023-04-28T09:30:57;3.20;;;1.40;;
62633;SDS011;48704;50.534;6.442;2023-04-28T09:33:22;2.13;;;1.30;;
62633;SDS011;48704;50.534;6.442;2023-04-28T09:35:48;2.08;;;0.90;;
62633;SDS011;48704;50.534;6.442;2023-04-28T09:38:14;2.60;;;1.30;;
62633;SDS011;48704;50.534;6.442;2023-04-28T09:43:32;2.20;;;1.10;;
62633;SDS011;48704;50.534;6.442;2023-04-28T09:50:57;1.95;;;1.10;;
62633;SDS011;48704;50.534;6.442;2023-04-28T09:53:26;1.83;;;0.90;;
62633;SDS011;48704;50.534;6.442;2023-04-28T09:55:54;4.18;;;0.95;;
62633;SDS011;48704;50.534;6.442;2023-04-28T09:58:21;1.30;;;0.90;;
62633;SDS011;48704;50.534;6.442;2023-04-28T10:03:25;2.47;;;1.10;;
62633;SDS011;48704;50.534;6.442;2023-04-28T10:05:52;1.40;;;0.85;;
62633;SDS011;48704;50.534;6.442;2023-04-28T10:08:18;2.38;;;1.15;;
62633;SDS011;48704;50.534;6.442;2023-04-28T10:10:45;2.72;;;1.30;;
62633;SDS011;48704;50.534;6.442;2023-04-28T10:13:13;3.38;;;1.30;;
62633;SDS011;48704;50.534;6.442;2023-04-28T10:15:40;3.15;;;1.70;;
62633;SDS011;48704;50.534;6.442;2023-04-28T10:18:06;2.33;;;1.27;;
62633;SDS011;48704;50.534;6.442;2023-04-28T10:20:32;3.03;;;1.60;;
62633;SDS011;48704;50.534;6.442;2023-04-28T10:25:34;1.88;;;1.13;;
62633;SDS011;48704;50.534;6.442;2023-04-28T10:28:03;3.28;;;1.15;;
62633;SDS011;48704;50.534;6.442;2023-04-28T10:30:30;2.05;;;1.20;;
62633;SDS011;48704;50.534;6.442;2023-04-28T10:38:02;4.47;;;1.55;;
62633;SDS011;48704;50.534;6.442;2023-04-28T10:42:55;2.25;;;1.33;;
62633;SDS011;48704;50.534;6.442;2023-04-28T10:48:21;1.52;;;0.88;;
62633;SDS011;48704;50.534;6.442;2023-04-28T10:56:09;3.30;;;1.02;;
62633;SDS011;48704;50.534;6.442;2023-04-28T10:58:35;2.05;;;1.08;;
62633;SDS011;48704;50.534;6.442;2023-04-28T11:11:39;2.83;;;1.02;;
62633;SDS011;48704;50.534;6.442;2023-04-28T11:16:50;1.63;;;1.08;;
62633;SDS011;48704;50.534;6.442;2023-04-28T11:19:19;1.60;;;1.10;;
62633;SDS011;48704;50.534;6.442;2023-04-28T11:21:47;1.73;;;1.00;;
62633;SDS011;48704;50.534;6.442;2023-04-28T11:24:13;1.83;;;0.93;;
62633;SDS011;48704;50.534;6.442;2023-04-28T11:26:39;2.10;;;1.00;;
62633;SDS011;48704;50.534;6.442;2023-04-28T11:29:05;3.17;;;0.88;;
62633;SDS011;48704;50.534;6.442;2023-04-28T11:31:31;1.10;;;0.60;;
62633;SDS011;48704;50.534;6.442;2023-04-28T11:34:09;1.60;;;0.80;;
62633;SDS011;48704;50.534;6.442;2023-04-28T11:36:41;1.98;;;1.08;;
62633;SDS011;48704;50.534;6.442;2023-04-28T11:39:10;1.58;;;0.80;;
62633;SDS011;48704;50.534;6.442;2023-04-28T11:41:37;1.45;;;0.75;;
62633;SDS011;48704;50.534;6.442;2023-04-28T11:44:13;1.67;;;0.80;;
62633;SDS011;48704;50.534;6.442;2023-04-28T11:47:00;1.83;;;0.68;;
62633;SDS011;48704;50.534;6.442;2023-04-28T11:49:27;1.65;;;0.60;;
62633;SDS011;48704;50.534;6.442;2023-04-28T11:51:53;1.50;;;1.00;;
62633;SDS011;48704;50.534;6.442;2023-04-28T11:54:23;3.10;;;0.80;;
62633;SDS011;48704;50.534;6.442;2023-04-28T11:56:50;1.88;;;0.90;;
62633;SDS011;48704;50.534;6.442;2023-04-28T11:59:17;1.00;;;0.70;;
62633;SDS011;48704;50.534;6.442;2023-04-28T12:01:49;1.67;;;0.80;;
62633;SDS011;48704;50.534;6.442;2023-04-28T12:04:52;1.20;;;0.75;;
62633;SDS011;48704;50.534;6.442;2023-04-28T12:07:15;1.63;;;0.70;;
62633;SDS011;48704;50.534;6.442;2023-04-28T12:09:43;4.75;;;0.77;;
62633;SDS011;48704;50.534;6.442;2023-04-28T12:12:13;0.95;;;0.60;;
62633;SDS011;48704;50.534;6.442;2023-04-28T12:14:58;0.98;;;0.77;;
62633;SDS011;48704;50.534;6.442;2023-04-28T12:17:29;0.82;;;0.60;;
62633;SDS011;48704;50.534;6.442;2023-04-28T12:20:00;1.27;;;0.60;;
62633;SDS011;48704;50.534;6.442;2023-04-28T12:25:14;1.00;;;0.60;;
62633;SDS011;48704;50.534;6.442;2023-04-28T12:27:56;1.05;;;0.68;;
62633;SDS011;48704;50.534;6.442;2023-04-28T12:30:23;1.02;;;0.55;;
62633;SDS011;48704;50.534;6.442;2023-04-28T12:32:49;1.10;;;0.80;;
62633;SDS011;48704;50.534;6.442;2023-04-28T12:35:14;0.80;;;0.40;;
62633;SDS011;48704;50.534;6.442;2023-04-28T12:37:43;2.15;;;0.57;;
62633;SDS011;48704;50.534;6.442;2023-04-28T12:40:08;2.22;;;0.68;;
62633;SDS011;48704;50.534;6.442;2023-04-28T12:42:34;1.58;;;0.80;;
62633;SDS011;48704;50.534;6.442;2023-04-28T12:45:00;2.85;;;1.20;;
62633;SDS011;48704;50.534;6.442;2023-04-28T12:47:26;2.60;;;0.70;;
62633;SDS011;48704;50.534;6.442;2023-04-28T12:49:51;0.85;;;0.40;;
62633;SDS011;48704;50.534;6.442;2023-04-28T12:52:17;1.85;;;0.60;;
62633;SDS011;48704;50.534;6.442;2023-04-28T12:54:43;2.65;;;1.15;;
62633;SDS011;48704;50.534;6.442;2023-04-28T12:57:11;1.08;;;0.73;;
62633;SDS011;48704;50.534;6.442;2023-04-28T12:59:37;1.35;;;0.80;;
62633;SDS011;48704;50.534;6.442;2023-04-28T13:02:02;1.60;;;0.70;;
62633;SDS011;48704;50.534;6.442;2023-04-28T13:04:28;1.50;;;0.70;;
62633;SDS011;48704;50.534;6.442;2023-04-28T13:06:54;1.73;;;0.80;;
62633;SDS011;48704;50.534;6.442;2023-04-28T13:09:22;3.13;;;1.00;;
62633;SDS011;48704;50.534;6.442;2023-04-28T13:11:49;1.40;;;0.80;;
62633;SDS011;48704;50.534;6.442;2023-04-28T13:14:15;1.70;;;0.90;;
62633;SDS011;48704;50.534;6.442;2023-04-28T13:16:40;2.30;;;0.75;;
62633;SDS011;48704;50.534;6.442;2023-04-28T13:19:06;2.78;;;1.20;;
62633;SDS011;48704;50.534;6.442;2023-04-28T13:21:37;2.70;;;1.00;;
62633;SDS011;48704;50.534;6.442;2023-04-28T13:24:03;2.55;;;0.90;;
62633;SDS011;48704;50.534;6.442;2023-04-28T13:26:28;3.28;;;1.08;;
62633;SDS011;48704;50.534;6.442;2023-04-28T13:28:54;1.63;;;0.90;;
62633;SDS011;48704;50.534;6.442;2023-04-28T13:31:20;2.13;;;0.90;;
62633;SDS011;48704;50.534;6.442;2023-04-28T13:33:45;3.28;;;0.88;;
62633;SDS011;48704;50.534;6.442;2023-04-28T13:36:11;1.92;;;1.00;;
62633;SDS011;48704;50.534;6.442;2023-04-28T13:38:36;2.15;;;0.95;;
62633;SDS011;48704;50.534;6.442;2023-04-28T13:41:02;1.95;;;0.80;;
62633;SDS011;48704;50.534;6.442;2023-04-28T13:43:27;3.35;;;1.20;;
62633;SDS011;48704;50.534;6.442;2023-04-28T13:45:52;2.58;;;0.95;;
62633;SDS011;48704;50.534;6.442;2023-04-28T13:48:18;1.73;;;0.95;;
62633;SDS011;48704;50.534;6.442;2023-04-28T13:50:43;1.60;;;1.00;;
62633;SDS011;48704;50.534;6.442;2023-04-28T13:53:09;3.25;;;1.30;;
62633;SDS011;48704;50.534;6.442;2023-04-28T13:55:34;2.45;;;1.17;;
62633;SDS011;48704;50.534;6.442;2023-04-28T13:58:00;4.28;;;1.42;;
62633;SDS011;48704;50.534;6.442;2023-04-28T14:00:28;2.80;;;1.20;;
62633;SDS011;48704;50.534;6.442;2023-04-28T14:02:58;1.90;;;1.00;;
62633;SDS011;48704;50.534;6.442;2023-04-28T14:05:24;2.35;;;0.90;;
62633;SDS011;48704;50.534;6.442;2023-04-28T14:07:49;2.85;;;0.80;;
62633;SDS011;48704;50.534;6.442;2023-04-28T14:10:15;1.30;;;0.70;;
62633;SDS011;48704;50.534;6.442;2023-04-28T14:12:41;2.50;;;0.90;;
62633;SDS011;48704;50.534;6.442;2023-04-28T14:15:07;1.30;;;0.77;;
62633;SDS011;48704;50.534;6.442;2023-04-28T14:17:32;2.15;;;1.10;;
62633;SDS011;48704;50.534;6.442;2023-04-28T14:20:01;3.00;;;1.30;;
62633;SDS011;48704;50.534;6.442;2023-04-28T14:22:27;2.45;;;1.10;;
62633;SDS011;48704;50.534;6.442;2023-04-28T14:24:53;3.63;;;1.50;;
62633;SDS011;48704;50.534;6.442;2023-04-28T14:27:18;3.20;;;1.38;;
62633;SDS011;48704;50.534;6.442;2023-04-28T14:29:44;2.85;;;1.27;;
62633;SDS011;48704;50.534;6.442;2023-04-28T14:32:12;1.85;;;1.13;;
62633;SDS011;48704;50.534;6.442;2023-04-28T14:34:38;1.52;;;1.00;;
62633;SDS011;48704;50.534;6.442;2023-04-28T14:37:03;4.00;;;1.02;;
62633;SDS011;48704;50.534;6.442;2023-04-28T14:39:28;1.85;;;0.70;;
62633;SDS011;48704;50.534;6.442;2023-04-28T14:41:54;1.30;;;0.70;;
62633;SDS011;48704;50.534;6.442;2023-04-28T14:44:19;1.40;;;0.77;;
62633;SDS011;48704;50.534;6.442;2023-04-28T14:46:45;3.28;;;0.85;;
62633;SDS011;48704;50.534;6.442;2023-04-28T14:49:10;1.77;;;0.90;;
62633;SDS011;48704;50.534;6.442;2023-04-28T14:51:36;2.40;;;0.70;;
62633;SDS011;48704;50.534;6.442;2023-04-28T14:54:01;2.40;;;1.02;;
62633;SDS011;48704;50.534;6.442;2023-04-28T14:56:26;1.77;;;0.70;;
62633;SDS011;48704;50.534;6.442;2023-04-28T14:58:51;2.20;;;0.70;;
62633;SDS011;48704;50.534;6.442;2023-04-28T15:01:18;1.08;;;0.60;;
62633;SDS011;48704;50.534;6.442;2023-04-28T15:03:43;1.75;;;0.80;;
62633;SDS011;48704;50.534;6.442;2023-04-28T15:06:09;1.98;;;0.65;;
62633;SDS011;48704;50.534;6.442;2023-04-28T15:08:35;1.63;;;0.70;;
62633;SDS011;48704;50.534;6.442;2023-04-28T15:11:00;1.80;;;0.98;;
62633;SDS011;48704;50.534;6.442;2023-04-28T15:13:26;7.43;;;0.95;;
62633;SDS011;48704;50.534;6.442;2023-04-28T15:15:52;1.98;;;0.95;;
62633;SDS011;48704;50.534;6.442;2023-04-28T15:18:17;1.63;;;0.80;;
62633;SDS011;48704;50.534;6.442;2023-04-28T15:20:43;2.70;;;1.00;;
62633;SDS011;48704;50.534;6.442;2023-04-28T15:23:08;2.05;;;0.90;;